createdAt,value
2017-10-22T00:00:31.460Z,100080.23
2017-10-22T00:01:37.221Z,100079.50
2017-10-22T00:02:44.281Z,100076.17
2017-10-22T00:03:50.036Z,100078.86
2017-10-22T00:04:56.557Z,100075.36
2017-10-22T00:06:02.350Z,100068.16
2017-10-22T00:07:07.905Z,100069.90
2017-10-22T00:08:13.665Z,100073.67
2017-10-22T00:09:19.424Z,100069.31
2017-10-22T00:10:25.169Z,100068.78
2017-10-22T00:11:30.944Z,100070.05
2017-10-22T00:12:36.715Z,100068.73
2017-10-22T00:13:42.468Z,100067.98
2017-10-22T00:14:48.216Z,100080.14
2017-10-22T00:15:53.973Z,100077.86
2017-10-22T00:16:59.759Z,100078.00
2017-10-22T00:18:05.526Z,100080.24
2017-10-22T00:19:11.281Z,100080.98
2017-10-22T00:20:17.036Z,100089.02
2017-10-22T00:21:22.784Z,100080.66
2017-10-22T00:22:28.580Z,100085.53
2017-10-22T00:23:35.088Z,100084.80
2017-10-22T00:24:40.841Z,100083.62
2017-10-22T00:25:46.607Z,100087.86
2017-10-22T00:26:52.359Z,100077.05
2017-10-22T00:27:58.896Z,100068.44
2017-10-22T00:29:04.657Z,100064.37
2017-10-22T00:30:11.001Z,100064.80
2017-10-22T00:31:16.468Z,100052.88
2017-10-22T00:32:22.597Z,100047.09
2017-10-22T00:33:29.169Z,100048.26
2017-10-22T00:34:35.694Z,100030.84
2017-10-22T00:35:42.235Z,100021.19
2017-10-22T00:36:48.001Z,100013.81
2017-10-22T00:37:53.761Z,100008.67
2017-10-22T00:39:00.356Z,99999.05
2017-10-22T00:40:06.114Z,99997.92
2017-10-22T00:41:11.858Z,99985.47
2017-10-22T00:42:17.660Z,99980.61
2017-10-22T00:43:24.189Z,99979.44
2017-10-22T00:44:29.618Z,99979.65
2017-10-22T00:45:35.793Z,99988.75
2017-10-22T00:46:42.368Z,100005.64
2017-10-22T00:47:48.921Z,100001.41
2017-10-22T00:48:55.437Z,100009.16
2017-10-22T00:50:01.218Z,100019.17
2017-10-22T00:51:07.754Z,100028.84
2017-10-22T00:52:15.005Z,100026.43
2017-10-22T00:53:20.757Z,100031.50
2017-10-22T00:54:26.521Z,100029.83
2017-10-22T00:55:32.297Z,100028.75
2017-10-22T00:56:37.711Z,100036.45
2017-10-22T00:57:43.887Z,100032.58
2017-10-22T00:58:49.638Z,100033.28
2017-10-22T00:59:55.404Z,100029.58
2017-10-22T01:01:01.553Z,100022.53
2017-10-22T01:02:07.292Z,100020.05
2017-10-22T01:03:13.029Z,100031.55
2017-10-22T01:04:18.796Z,100030.17
2017-10-22T01:05:24.544Z,100027.09
2017-10-22T01:06:30.336Z,100030.64
2017-10-22T01:07:36.084Z,100031.78
2017-10-22T01:08:41.834Z,100035.83
2017-10-22T01:09:47.361Z,100030.95
2017-10-22T01:10:52.887Z,100033.20
2017-10-22T01:11:59.012Z,100030.07
2017-10-22T01:13:04.868Z,100029.22
2017-10-22T01:14:09.937Z,100033.13
2017-10-22T01:15:15.340Z,100031.88
2017-10-22T01:16:21.101Z,100029.02
2017-10-22T01:17:26.906Z,100023.87
2017-10-22T01:18:33.424Z,100017.00
2017-10-22T01:19:38.841Z,100015.50
2017-10-22T01:20:44.249Z,100013.44
2017-10-22T01:21:49.312Z,100014.42
2017-10-22T01:22:54.758Z,100008.02
2017-10-22T01:24:00.242Z,100011.99
2017-10-22T01:25:05.305Z,100015.81
2017-10-22T01:26:10.355Z,100011.52
2017-10-22T01:27:16.532Z,100015.40
2017-10-22T01:28:21.980Z,100014.76
2017-10-22T01:29:27.397Z,100007.88
2017-10-22T01:30:33.152Z,100012.38
2017-10-22T01:31:38.376Z,100017.41
2017-10-22T01:32:43.437Z,100023.98
2017-10-22T01:33:49.221Z,100033.86
2017-10-22T01:34:55.064Z,100027.91
2017-10-22T01:36:00.896Z,100036.94
2017-10-22T01:37:06.309Z,100042.23
2017-10-22T01:38:11.718Z,100050.87
2017-10-22T01:39:17.160Z,100047.78
2017-10-22T01:40:22.605Z,100051.70
2017-10-22T01:41:27.464Z,100053.75
2017-10-22T01:42:33.293Z,100043.31
2017-10-22T01:43:39.060Z,100043.95
2017-10-22T01:44:44.522Z,100038.28
2017-10-22T01:45:49.930Z,100045.99
2017-10-22T01:46:56.075Z,100045.55
2017-10-22T01:48:01.889Z,100052.09
2017-10-22T01:49:08.453Z,100042.56
2017-10-22T01:50:13.917Z,100034.66
2017-10-22T01:51:19.669Z,100026.64
2017-10-22T01:52:25.078Z,100036.29
2017-10-22T01:53:30.900Z,100022.24
2017-10-22T01:54:36.342Z,100026.38
2017-10-22T01:55:42.566Z,100023.94
2017-10-22T01:56:48.035Z,100029.80
2017-10-22T01:57:53.689Z,100039.52
2017-10-22T01:58:59.860Z,100039.33
2017-10-22T02:00:05.273Z,100036.53
2017-10-22T02:01:11.822Z,100036.67
2017-10-22T02:02:18.371Z,100027.31
2017-10-22T02:03:24.124Z,100031.16
2017-10-22T02:04:30.304Z,100033.77
2017-10-22T02:05:35.726Z,100040.70
2017-10-22T02:06:42.306Z,100045.39
2017-10-22T02:07:47.717Z,100045.52
2017-10-22T02:08:53.542Z,100045.48
2017-10-22T02:09:59.730Z,100050.05
2017-10-22T02:11:04.786Z,100041.23
2017-10-22T02:12:09.869Z,100042.68
2017-10-22T02:13:15.641Z,100044.47
2017-10-22T02:14:21.731Z,100047.95
2017-10-22T02:15:27.140Z,100047.27
2017-10-22T02:16:32.898Z,100049.09
2017-10-22T02:17:39.244Z,100048.30
2017-10-22T02:18:45.764Z,100057.37
2017-10-22T02:19:51.516Z,100061.66
2017-10-22T02:20:56.580Z,100065.29
2017-10-22T02:22:03.838Z,100062.53
2017-10-22T02:23:09.945Z,100059.20
2017-10-22T02:24:15.693Z,100063.91
2017-10-22T02:25:21.120Z,100055.92
2017-10-22T02:26:27.120Z,100054.75
2017-10-22T02:27:32.860Z,100053.70
2017-10-22T02:28:38.632Z,100049.88
2017-10-22T02:29:45.154Z,100046.48
2017-10-22T02:30:50.911Z,100046.97
2017-10-22T02:31:56.473Z,100046.42
2017-10-22T02:33:02.998Z,100051.11
2017-10-22T02:34:08.781Z,100049.53
2017-10-22T02:35:14.529Z,100054.60
2017-10-22T02:36:19.933Z,100052.44
2017-10-22T02:37:25.682Z,100043.58
2017-10-22T02:38:31.865Z,100043.55
2017-10-22T02:39:37.640Z,100034.33
2017-10-22T02:40:43.398Z,100022.25
2017-10-22T02:41:49.283Z,100021.89
2017-10-22T02:42:56.461Z,100016.11
2017-10-22T02:44:02.224Z,100015.54
2017-10-22T02:45:08.003Z,100018.27
2017-10-22T02:46:14.525Z,100028.58
2017-10-22T02:47:20.284Z,100035.47
2017-10-22T02:48:26.055Z,100040.42
2017-10-22T02:49:31.875Z,100042.59
2017-10-22T02:50:37.652Z,100035.05
2017-10-22T02:51:43.832Z,100029.36
2017-10-22T02:52:49.600Z,100016.45
2017-10-22T02:53:55.357Z,100013.30
2017-10-22T02:55:01.102Z,100016.27
2017-10-22T02:56:06.906Z,100010.47
2017-10-22T02:57:12.672Z,100016.00
2017-10-22T02:58:18.472Z,100008.45
2017-10-22T02:59:23.891Z,100019.09
2017-10-22T03:00:30.074Z,100015.52
2017-10-22T03:01:35.846Z,100002.84
2017-10-22T03:02:41.590Z,99999.45
2017-10-22T03:03:47.348Z,100002.17
2017-10-22T03:04:53.100Z,100014.47
2017-10-22T03:05:58.940Z,100022.16
2017-10-22T03:07:05.150Z,100018.64
2017-10-22T03:08:10.899Z,100016.77
2017-10-22T03:09:16.665Z,100011.04
2017-10-22T03:10:22.412Z,100011.48
2017-10-22T03:11:28.156Z,100018.16
2017-10-22T03:12:34.704Z,100019.77
2017-10-22T03:13:42.223Z,100024.80
2017-10-22T03:14:47.962Z,100021.70
2017-10-22T03:15:53.715Z,100018.70
2017-10-22T03:16:59.490Z,100018.73
2017-10-22T03:18:04.919Z,100017.98
2017-10-22T03:19:10.686Z,100014.49
2017-10-22T03:20:16.466Z,100012.81
2017-10-22T03:21:22.992Z,100017.44
2017-10-22T03:22:28.737Z,100017.89
2017-10-22T03:23:34.508Z,100021.44
2017-10-22T03:24:40.334Z,100016.78
2017-10-22T03:25:46.848Z,100025.31
2017-10-22T03:26:52.637Z,100022.42
2017-10-22T03:27:59.160Z,100020.50
2017-10-22T03:29:04.948Z,100013.53
2017-10-22T03:30:10.715Z,100019.24
2017-10-22T03:31:16.469Z,100014.22
2017-10-22T03:32:22.233Z,100021.82
2017-10-22T03:33:27.996Z,100020.83
2017-10-22T03:34:33.769Z,100023.92
2017-10-22T03:35:39.523Z,100017.41
2017-10-22T03:36:45.263Z,100023.31
2017-10-22T03:37:51.012Z,100023.14
2017-10-22T03:38:56.758Z,100022.68
2017-10-22T03:40:02.533Z,100027.30
2017-10-22T03:41:08.281Z,100024.99
2017-10-22T03:42:14.807Z,100032.30
2017-10-22T03:43:20.561Z,100017.22
2017-10-22T03:44:26.313Z,100020.52
2017-10-22T03:45:32.101Z,100018.98
2017-10-22T03:46:37.844Z,100018.98
2017-10-22T03:47:43.606Z,100013.56
2017-10-22T03:48:49.345Z,100014.98
2017-10-22T03:49:55.096Z,100016.87
2017-10-22T03:51:00.896Z,100022.20
2017-10-22T03:52:07.406Z,100019.11
2017-10-22T03:53:13.156Z,100024.39
2017-10-22T03:54:19.076Z,100017.95
2017-10-22T03:55:24.825Z,100021.29
2017-10-22T03:56:30.594Z,100022.09
2017-10-22T03:57:37.852Z,100021.88
2017-10-22T03:58:43.602Z,100018.90
2017-10-22T03:59:49.392Z,100021.89
2017-10-22T04:00:55.896Z,100026.98
2017-10-22T04:02:01.678Z,100027.73
2017-10-22T04:03:08.188Z,100029.61
2017-10-22T04:04:13.942Z,100022.67
2017-10-22T04:05:19.694Z,100013.05
2017-10-22T04:06:25.443Z,100012.67
2017-10-22T04:07:31.222Z,100012.91
2017-10-22T04:08:36.972Z,100010.74
2017-10-22T04:09:42.725Z,100006.58
2017-10-22T04:10:48.483Z,100009.31
2017-10-22T04:11:54.232Z,100002.70
2017-10-22T04:13:00.330Z,100006.95
2017-10-22T04:14:06.093Z,100005.48
2017-10-22T04:15:11.852Z,100001.09
2017-10-22T04:16:17.617Z,100010.25
2017-10-22T04:17:23.363Z,100004.01
2017-10-22T04:18:29.138Z,100002.86
2017-10-22T04:19:34.881Z,100003.57
2017-10-22T04:20:40.640Z,100008.16
2017-10-22T04:21:46.397Z,99999.86
2017-10-22T04:22:52.232Z,100010.47
2017-10-22T04:23:58.013Z,100009.53
2017-10-22T04:25:03.764Z,100007.08
2017-10-22T04:26:09.941Z,100012.28
2017-10-22T04:27:15.707Z,100010.28
2017-10-22T04:28:22.481Z,100005.90
2017-10-22T04:29:28.259Z,100005.52
2017-10-22T04:30:34.798Z,100003.24
2017-10-22T04:31:40.541Z,99999.00
2017-10-22T04:32:46.308Z,99997.95
2017-10-22T04:33:52.831Z,100000.02
2017-10-22T04:34:58.600Z,99997.00
2017-10-22T04:36:05.167Z,99993.87
2017-10-22T04:37:10.984Z,99996.43
2017-10-22T04:38:16.746Z,100000.69
2017-10-22T04:39:22.488Z,100006.72
2017-10-22T04:40:28.273Z,100010.83
2017-10-22T04:41:34.029Z,100000.64
2017-10-22T04:42:39.778Z,100004.13
2017-10-22T04:43:45.520Z,99998.34
2017-10-22T04:44:51.272Z,100004.09
2017-10-22T04:45:57.075Z,100004.47
2017-10-22T04:47:02.837Z,99998.63
2017-10-22T04:48:08.585Z,99998.63
2017-10-22T04:49:14.340Z,100000.83
2017-10-22T04:50:20.092Z,99999.41
2017-10-22T04:51:25.856Z,99990.88
2017-10-22T04:52:32.444Z,99990.14
2017-10-22T04:53:38.188Z,99993.91
2017-10-22T04:54:44.010Z,99994.63
2017-10-22T04:55:50.526Z,99993.36
2017-10-22T04:56:56.309Z,99990.47
2017-10-22T04:58:02.819Z,99994.58
2017-10-22T04:59:08.653Z,99992.98
2017-10-22T05:00:14.467Z,99985.49
2017-10-22T05:01:20.982Z,99987.47
2017-10-22T05:02:26.752Z,99983.94
2017-10-22T05:03:33.272Z,99981.77
2017-10-22T05:04:39.052Z,99979.59
2017-10-22T05:05:45.560Z,99972.59
2017-10-22T05:06:51.301Z,99972.63
2017-10-22T05:07:57.076Z,99970.47
2017-10-22T05:09:05.731Z,99970.13
2017-10-22T05:10:11.470Z,99970.61
2017-10-22T05:11:17.209Z,99966.12
2017-10-22T05:12:23.014Z,99962.69
2017-10-22T05:13:28.862Z,99965.56
2017-10-22T05:14:34.600Z,99967.53
2017-10-22T05:15:40.352Z,99963.35
2017-10-22T05:16:46.859Z,99962.87
2017-10-22T05:17:52.602Z,99962.83
2017-10-22T05:18:58.364Z,99958.59
2017-10-22T05:20:04.104Z,99964.91
2017-10-22T05:21:09.856Z,99963.25
2017-10-22T05:22:15.596Z,99964.84
2017-10-22T05:23:21.353Z,99971.58
2017-10-22T05:24:27.125Z,99969.65
2017-10-22T05:25:32.868Z,99976.16
2017-10-22T05:26:39.024Z,99978.55
2017-10-22T05:27:44.765Z,99970.63
2017-10-22T05:28:50.320Z,99974.36
2017-10-22T05:29:56.095Z,99976.10
2017-10-22T05:31:01.833Z,99972.34
2017-10-22T05:32:07.576Z,99980.53
2017-10-22T05:33:14.092Z,99977.08
2017-10-22T05:34:19.836Z,99982.83
2017-10-22T05:35:25.618Z,99978.96
2017-10-22T05:36:31.410Z,99980.70
2017-10-22T05:37:37.148Z,99970.16
2017-10-22T05:38:42.893Z,99971.95
2017-10-22T05:39:48.635Z,99977.98
2017-10-22T05:40:54.417Z,99982.64
2017-10-22T05:42:00.166Z,99979.16
2017-10-22T05:43:05.904Z,99979.80
2017-10-22T05:44:11.646Z,99976.13
2017-10-22T05:45:17.137Z,99970.30
2017-10-22T05:46:22.909Z,99973.63
2017-10-22T05:47:28.720Z,99976.61
2017-10-22T05:48:34.461Z,99979.41
2017-10-22T05:49:40.221Z,99975.98
2017-10-22T05:50:45.968Z,99974.28
2017-10-22T05:51:51.732Z,99979.97
2017-10-22T05:52:57.476Z,99980.11
2017-10-22T05:54:03.229Z,99982.66
2017-10-22T05:55:08.966Z,99977.89
2017-10-22T05:56:14.734Z,99980.53
2017-10-22T05:57:20.748Z,99980.67
2017-10-22T05:58:26.497Z,99974.42
2017-10-22T05:59:32.461Z,99977.28
2017-10-22T06:00:39.484Z,99981.42
2017-10-22T06:01:45.240Z,99977.00
2017-10-22T06:02:51.000Z,99976.77
2017-10-22T06:03:56.754Z,99976.91
2017-10-22T06:05:02.493Z,99976.86
2017-10-22T06:06:09.046Z,99979.20
2017-10-22T06:07:14.324Z,99984.29
2017-10-22T06:08:20.092Z,99980.25
2017-10-22T06:09:26.319Z,99987.17
2017-10-22T06:10:32.061Z,99993.63
2017-10-22T06:11:37.865Z,99997.66
2017-10-22T06:12:44.386Z,99989.39
2017-10-22T06:13:50.162Z,99983.50
2017-10-22T06:14:55.996Z,99990.09
2017-10-22T06:16:02.537Z,99991.05
2017-10-22T06:17:08.278Z,99996.55
2017-10-22T06:18:14.030Z,99991.61
2017-10-22T06:19:21.320Z,99989.73
2017-10-22T06:20:27.836Z,99989.59
2017-10-22T06:21:33.705Z,99993.69
2017-10-22T06:22:39.451Z,99993.27
2017-10-22T06:23:45.188Z,99990.73
2017-10-22T06:24:50.964Z,99990.12
2017-10-22T06:25:57.483Z,99987.31
2017-10-22T06:27:03.226Z,99989.81
2017-10-22T06:28:08.977Z,99991.88
2017-10-22T06:29:14.717Z,99981.90
2017-10-22T06:30:20.521Z,99980.97
2017-10-22T06:31:26.266Z,99978.28
2017-10-22T06:32:32.025Z,99979.42
2017-10-22T06:33:37.785Z,99985.20
2017-10-22T06:34:43.193Z,99983.98
2017-10-22T06:35:48.978Z,99988.22
2017-10-22T06:36:54.384Z,99986.62
2017-10-22T06:38:00.142Z,99984.80
2017-10-22T06:39:05.695Z,99984.09
2017-10-22T06:40:10.829Z,99976.73
2017-10-22T06:41:17.206Z,99982.77
2017-10-22T06:42:22.724Z,99985.21
2017-10-22T06:43:28.884Z,99986.71
2017-10-22T06:44:34.661Z,99988.31
2017-10-22T06:45:40.089Z,99991.48
2017-10-22T06:46:45.865Z,99984.27
2017-10-22T06:47:51.096Z,99988.36
2017-10-22T06:48:56.505Z,99983.93
2017-10-22T06:50:02.242Z,99983.66
2017-10-22T06:51:07.674Z,99985.40
2017-10-22T06:52:13.440Z,99987.13
2017-10-22T06:53:19.186Z,99991.80
2017-10-22T06:54:24.398Z,99989.21
2017-10-22T06:55:29.628Z,99992.80
2017-10-22T06:56:34.746Z,99993.92
2017-10-22T06:57:40.208Z,99995.44
2017-10-22T06:58:45.629Z,99994.87
2017-10-22T06:59:50.905Z,99995.66
2017-10-22T07:00:57.432Z,99997.12
2017-10-22T07:02:02.526Z,99998.07
2017-10-22T07:03:07.980Z,100000.42
2017-10-22T07:04:13.388Z,100009.70
2017-10-22T07:05:18.799Z,100001.61
2017-10-22T07:06:24.542Z,100003.43
2017-10-22T07:07:30.325Z,100003.59
2017-10-22T07:08:36.148Z,100006.12
2017-10-22T07:09:41.552Z,100012.82
2017-10-22T07:10:47.328Z,100009.84
2017-10-22T07:11:53.136Z,100010.66
2017-10-22T07:12:58.903Z,100013.57
2017-10-22T07:14:04.345Z,100008.16
2017-10-22T07:15:09.405Z,100006.27
2017-10-22T07:16:15.181Z,100006.03
2017-10-22T07:17:20.954Z,100005.42
2017-10-22T07:18:26.698Z,100002.31
2017-10-22T07:19:32.502Z,100000.71
2017-10-22T07:20:39.028Z,100007.16
2017-10-22T07:21:44.772Z,99996.00
2017-10-22T07:22:51.335Z,99997.59
2017-10-22T07:23:57.108Z,99996.56
2017-10-22T07:25:02.889Z,99987.14
2017-10-22T07:26:08.636Z,99990.86
2017-10-22T07:27:14.378Z,99985.73
2017-10-22T07:28:21.038Z,99977.16
2017-10-22T07:29:26.788Z,99975.78
2017-10-22T07:30:32.561Z,99977.29
2017-10-22T07:31:39.073Z,99970.69
2017-10-22T07:32:44.817Z,99968.71
2017-10-22T07:33:50.796Z,99965.41
2017-10-22T07:34:57.346Z,99967.00
2017-10-22T07:36:03.638Z,99965.01
2017-10-22T07:37:09.384Z,99973.62
2017-10-22T07:38:14.793Z,99970.83
2017-10-22T07:39:21.313Z,99962.03
2017-10-22T07:40:27.065Z,99966.19
2017-10-22T07:41:32.940Z,99967.88
2017-10-22T07:42:39.766Z,99971.43
2017-10-22T07:43:45.174Z,99973.49
2017-10-22T07:44:51.412Z,99974.84
2017-10-22T07:45:57.164Z,99970.06
2017-10-22T07:47:03.981Z,99980.30
2017-10-22T07:48:10.497Z,99983.28
2017-10-22T07:49:23.458Z,99985.09
2017-10-22T07:50:30.212Z,99987.89
2017-10-22T07:51:35.962Z,99981.19
2017-10-22T07:52:41.927Z,99978.20
2017-10-22T07:53:48.444Z,99980.61
2017-10-22T07:54:54.228Z,99976.92
2017-10-22T07:55:59.992Z,99979.35
2017-10-22T07:57:05.745Z,99979.47
2017-10-22T07:58:11.518Z,99972.17
2017-10-22T07:59:17.516Z,99971.80
2017-10-22T08:00:23.301Z,99972.50
2017-10-22T08:01:29.108Z,99976.34
2017-10-22T08:02:35.049Z,99974.12
2017-10-22T08:03:40.837Z,99969.16
2017-10-22T08:04:46.655Z,99973.11
2017-10-22T08:05:52.411Z,99978.00
2017-10-22T08:06:58.173Z,99971.33
2017-10-22T08:08:04.058Z,99966.06
2017-10-22T08:09:09.909Z,99973.20
2017-10-22T08:10:15.911Z,99966.88
2017-10-22T08:11:22.801Z,99969.23
2017-10-22T08:12:29.363Z,99963.20
2017-10-22T08:13:35.196Z,99967.47
2017-10-22T08:14:41.632Z,99965.74
2017-10-22T08:15:47.259Z,99970.36
2017-10-22T08:16:52.921Z,99960.96
2017-10-22T08:17:59.618Z,99967.40
2017-10-22T08:19:05.554Z,99965.67
2017-10-22T08:20:12.257Z,99960.34
2017-10-22T08:21:20.063Z,99968.73
2017-10-22T08:22:25.916Z,99960.95
2017-10-22T08:23:31.670Z,99961.13
2017-10-22T08:24:38.354Z,99962.69
2017-10-22T08:25:44.344Z,99952.57
2017-10-22T08:26:50.113Z,99950.45
2017-10-22T08:27:57.422Z,99953.80
2017-10-22T08:29:03.358Z,99957.20
2017-10-22T08:30:09.148Z,99947.13
2017-10-22T08:31:14.917Z,99945.50
2017-10-22T08:32:20.729Z,99939.56
2017-10-22T08:33:26.465Z,99939.55
2017-10-22T08:34:32.108Z,99940.77
2017-10-22T08:35:37.857Z,99935.35
2017-10-22T08:36:43.626Z,99937.66
2017-10-22T08:37:49.376Z,99937.64
2017-10-22T08:38:55.890Z,99929.82
2017-10-22T08:40:01.698Z,99935.69
2017-10-22T08:41:08.196Z,99937.87
2017-10-22T08:42:13.964Z,99937.77
2017-10-22T08:43:19.713Z,99936.53
2017-10-22T08:44:24.786Z,99937.09
2017-10-22T08:45:29.998Z,99929.67
2017-10-22T08:46:35.079Z,99941.41
2017-10-22T08:47:41.002Z,99942.39
2017-10-22T08:48:46.101Z,99940.23
2017-10-22T08:49:51.524Z,99944.16
2017-10-22T08:50:57.276Z,99943.58
2017-10-22T08:52:03.019Z,99940.48
2017-10-22T08:53:08.545Z,99946.50
2017-10-22T08:54:15.720Z,99947.63
2017-10-22T08:55:21.496Z,99946.95
2017-10-22T08:56:26.905Z,99947.84
2017-10-22T08:57:32.793Z,99943.82
2017-10-22T08:58:38.711Z,99949.64
2017-10-22T08:59:44.732Z,99943.91
2017-10-22T09:00:49.917Z,99943.48
2017-10-22T09:01:56.524Z,99946.23
2017-10-22T09:03:02.264Z,99945.79
2017-10-22T09:04:08.244Z,99948.42
2017-10-22T09:05:13.960Z,99949.61
2017-10-22T09:06:19.817Z,99953.80
2017-10-22T09:07:25.402Z,99944.62
2017-10-22T09:08:30.905Z,99952.52
2017-10-22T09:09:36.878Z,99954.52
2017-10-22T09:10:42.729Z,99955.39
2017-10-22T09:11:47.845Z,99956.89
2017-10-22T09:12:53.780Z,99961.14
2017-10-22T09:13:59.188Z,99971.02
2017-10-22T09:15:04.647Z,99956.47
2017-10-22T09:16:10.679Z,99966.84
2017-10-22T09:17:16.073Z,99964.73
2017-10-22T09:18:22.217Z,99970.23
2017-10-22T09:19:29.296Z,99973.69
2017-10-22T09:20:35.237Z,99970.63
2017-10-22T09:21:41.609Z,99975.95
2017-10-22T09:22:47.384Z,99968.77
2017-10-22T09:23:52.965Z,99970.85
2017-10-22T09:24:59.571Z,99959.17
2017-10-22T09:26:05.490Z,99975.12
2017-10-22T09:27:11.433Z,99973.64
2017-10-22T09:28:16.897Z,99971.11
2017-10-22T09:29:23.427Z,99974.48
2017-10-22T09:30:29.452Z,99972.77
2017-10-22T09:31:35.289Z,99970.63
2017-10-22T09:32:40.814Z,99977.87
2017-10-22T09:33:47.188Z,99975.33
2017-10-22T09:34:53.303Z,99972.59
2017-10-22T09:35:59.266Z,99979.11
2017-10-22T09:37:05.337Z,99969.62
2017-10-22T09:38:10.996Z,99979.81
2017-10-22T09:39:16.568Z,99977.56
2017-10-22T09:40:22.362Z,99967.92
2017-10-22T09:41:28.706Z,99977.91
2017-10-22T09:42:35.445Z,99972.33
2017-10-22T09:43:41.377Z,99973.61
2017-10-22T09:44:48.474Z,99977.10
2017-10-22T09:45:55.338Z,99975.63
2017-10-22T09:47:02.125Z,99983.11
2017-10-22T09:48:08.911Z,99975.23
2017-10-22T09:49:14.963Z,99978.30
2017-10-22T09:50:21.524Z,99981.38
2017-10-22T09:51:27.627Z,99980.58
2017-10-22T09:52:32.970Z,99986.03
2017-10-22T09:53:39.972Z,99979.48
2017-10-22T09:54:46.037Z,99981.85
2017-10-22T09:55:51.554Z,99990.42
2017-10-22T09:56:57.367Z,99991.14
2017-10-22T09:58:03.876Z,99985.36
2017-10-22T09:59:09.487Z,99990.20
2017-10-22T10:00:15.442Z,99981.76
2017-10-22T10:01:21.694Z,99985.61
2017-10-22T10:02:27.784Z,99980.93
2017-10-22T10:03:35.018Z,99984.98
2017-10-22T10:04:40.812Z,99984.28
2017-10-22T10:05:47.940Z,99979.53
2017-10-22T10:06:54.747Z,99972.67
2017-10-22T10:08:00.851Z,99983.20
2017-10-22T10:09:06.289Z,99986.43
2017-10-22T10:10:12.232Z,99976.17
2017-10-22T10:11:18.484Z,99986.54
2017-10-22T10:12:24.221Z,99987.84
2017-10-22T10:13:30.374Z,99985.09
2017-10-22T10:14:36.530Z,99985.09
2017-10-22T10:15:42.164Z,99987.92
2017-10-22T10:16:48.254Z,99988.81
2017-10-22T10:17:54.284Z,99984.69
2017-10-22T10:19:00.055Z,99988.72
2017-10-22T10:20:06.725Z,99987.41
2017-10-22T10:21:14.252Z,99991.98
2017-10-22T10:22:20.068Z,99984.64
2017-10-22T10:23:26.439Z,99987.28
2017-10-22T10:24:31.879Z,99989.48
2017-10-22T10:25:37.878Z,99985.84
2017-10-22T10:26:43.664Z,99990.15
2017-10-22T10:27:50.069Z,99987.28
2017-10-22T10:28:56.028Z,99982.95
2017-10-22T10:30:01.719Z,99983.61
2017-10-22T10:31:08.514Z,99978.06
2017-10-22T10:32:15.761Z,99980.63
2017-10-22T10:33:21.908Z,99976.83
2017-10-22T10:34:28.367Z,99977.67
2017-10-22T10:35:34.471Z,99986.23
2017-10-22T10:36:40.325Z,99979.52
2017-10-22T10:37:47.387Z,99977.38
2017-10-22T10:38:53.377Z,99972.83
2017-10-22T10:40:00.404Z,99975.70
2017-10-22T10:41:06.065Z,99971.75
2017-10-22T10:42:12.374Z,99971.40
2017-10-22T10:43:19.567Z,99974.23
2017-10-22T10:44:25.575Z,99975.21
2017-10-22T10:45:32.861Z,99971.66
2017-10-22T10:46:39.094Z,99979.71
2017-10-22T10:47:45.352Z,99983.17
2017-10-22T10:48:52.527Z,99979.88
2017-10-22T10:49:58.766Z,99972.83
2017-10-22T10:51:05.202Z,99979.71
2017-10-22T10:52:11.965Z,99973.25
2017-10-22T10:53:19.685Z,99973.97
2017-10-22T10:54:25.839Z,99975.97
2017-10-22T10:55:31.888Z,99971.25
2017-10-22T10:56:38.137Z,99971.22
2017-10-22T10:57:44.243Z,99972.18
2017-10-22T10:58:51.314Z,99972.73
2017-10-22T10:59:57.618Z,99979.36
2017-10-22T11:01:03.053Z,99969.53
2017-10-22T11:02:09.277Z,99965.97
2017-10-22T11:03:15.510Z,99968.52
2017-10-22T11:04:21.440Z,99974.56
2017-10-22T11:05:27.553Z,99960.12
2017-10-22T11:06:33.402Z,99965.33
2017-10-22T11:07:39.722Z,99968.98
2017-10-22T11:08:46.849Z,99963.06
2017-10-22T11:09:52.901Z,99965.00
2017-10-22T11:10:58.393Z,99961.97
2017-10-22T11:12:04.111Z,99960.80
2017-10-22T11:13:09.890Z,99959.70
2017-10-22T11:14:15.587Z,99965.52
2017-10-22T11:15:22.597Z,99963.03
2017-10-22T11:16:28.849Z,99958.64
2017-10-22T11:17:34.879Z,99953.02
2017-10-22T11:18:40.866Z,99958.93
2017-10-22T11:19:47.107Z,99959.58
2017-10-22T11:20:53.147Z,99958.17
2017-10-22T11:21:59.399Z,99961.25
2017-10-22T11:23:06.274Z,99956.31
2017-10-22T11:24:12.317Z,99955.44
2017-10-22T11:25:18.978Z,99958.92
2017-10-22T11:26:25.030Z,99959.52
2017-10-22T11:27:31.168Z,99953.47
2017-10-22T11:28:37.326Z,99945.84
2017-10-22T11:29:43.819Z,99954.18
2017-10-22T11:30:50.700Z,99950.69
2017-10-22T11:31:57.593Z,99955.08
2017-10-22T11:33:05.433Z,99949.33
2017-10-22T11:34:12.585Z,99949.33
2017-10-22T11:35:18.736Z,99946.10
2017-10-22T11:36:26.220Z,99947.20
2017-10-22T11:37:33.396Z,99937.17
2017-10-22T11:38:39.599Z,99951.53
2017-10-22T11:39:46.493Z,99947.30
2017-10-22T11:40:52.673Z,99951.86
2017-10-22T11:41:58.817Z,99948.06
2017-10-22T11:43:05.358Z,99952.69
2017-10-22T11:44:11.479Z,99950.75
2017-10-22T11:45:18.325Z,99940.77
2017-10-22T11:46:24.496Z,99946.81
2017-10-22T11:47:31.826Z,99944.25
2017-10-22T11:48:38.003Z,99939.02
2017-10-22T11:49:45.517Z,99946.16
2017-10-22T11:50:52.616Z,99941.83
2017-10-22T11:51:58.889Z,99941.16
2017-10-22T11:53:05.749Z,99940.74
2017-10-22T11:54:11.811Z,99940.94
2017-10-22T11:55:18.769Z,99940.50
2017-10-22T11:56:24.920Z,99943.14
2017-10-22T11:57:31.094Z,99939.75
2017-10-22T11:58:37.176Z,99939.43
2017-10-22T11:59:44.813Z,99936.27
2017-10-22T12:00:51.076Z,99946.72
2017-10-22T12:01:58.483Z,99939.34
2017-10-22T12:03:05.158Z,99939.33
2017-10-22T12:04:12.082Z,99939.50
2017-10-22T12:05:18.629Z,99938.34
2017-10-22T12:06:27.035Z,99941.58
2017-10-22T12:07:33.696Z,99944.31
2017-10-22T12:08:40.188Z,99937.17
2017-10-22T12:09:46.036Z,99940.09
2017-10-22T12:10:52.361Z,99942.92
2017-10-22T12:11:58.708Z,99941.84
2017-10-22T12:13:04.780Z,99938.45
2017-10-22T12:14:10.531Z,99937.53
2017-10-22T12:15:16.722Z,99933.44
2017-10-22T12:16:23.619Z,99933.28
2017-10-22T12:17:29.770Z,99929.55
2017-10-22T12:18:36.534Z,99933.88
2017-10-22T12:19:42.789Z,99932.22
2017-10-22T12:20:49.858Z,99928.34
2017-10-22T12:21:56.065Z,99930.16
2017-10-22T12:23:03.083Z,99928.83
2017-10-22T12:24:09.241Z,99924.70
2017-10-22T12:25:17.207Z,99927.51
2017-10-22T12:26:23.598Z,99930.32
2017-10-22T12:27:29.623Z,99926.02
2017-10-22T12:28:35.668Z,99926.84
2017-10-22T12:29:41.993Z,99926.80
2017-10-22T12:30:48.902Z,99930.04
2017-10-22T12:31:56.210Z,99926.16
2017-10-22T12:33:02.404Z,99919.92
2017-10-22T12:34:08.696Z,99928.77
2017-10-22T12:35:14.903Z,99925.67
2017-10-22T12:36:21.934Z,99921.09
2017-10-22T12:37:29.140Z,99930.42
2017-10-22T12:38:36.322Z,99929.78
2017-10-22T12:39:43.534Z,99931.55
2017-10-22T12:40:49.901Z,99924.61
2017-10-22T12:41:56.169Z,99919.47
2017-10-22T12:43:02.974Z,99921.38
2017-10-22T12:44:08.854Z,99918.40
2017-10-22T12:45:15.116Z,99919.89
2017-10-22T12:46:21.249Z,99931.59